sensor_id;sensor_type;location;lat;lon;timestamp;pressure;altitude;pressure_sealevel;temperature;humidity
47556;BME280;33291;46.222;26.460;2023-07-29T00:01:40;96262.63;;;15.28;70.71
47556;BME280;33291;46.222;26.460;2023-07-29T00:04:07;96254.97;;;15.18;70.86
47556;BME280;33291;46.222;26.460;2023-07-29T00:06:34;96256.75;;;15.26;70.34
47556;BME280;33291;46.222;26.460;2023-07-29T00:08:59;96257.03;;;15.31;70.57
47556;BME280;33291;46.222;26.460;2023-07-29T00:11:25;96247.25;;;15.25;70.70
47556;BME280;33291;46.222;26.460;2023-07-29T00:13:50;96267.63;;;15.15;71.64
47556;BME280;33291;46.222;26.460;2023-07-29T00:16:16;96230.25;;;14.89;72.02
47556;BME280;33291;46.222;26.460;2023-07-29T00:18:43;96266.69;;;15.07;71.93
47556;BME280;33291;46.222;26.460;2023-07-29T00:21:08;96238.59;;;14.93;71.76
47556;BME280;33291;46.222;26.460;2023-07-29T00:23:34;96239.03;;;14.97;71.85
47556;BME280;33291;46.222;26.460;2023-07-29T00:25:59;96257.84;;;15.08;71.71
47556;BME280;33291;46.222;26.460;2023-07-29T00:28:25;96255.72;;;15.04;71.53
47556;BME280;33291;46.222;26.460;2023-07-29T00:30:50;96252.59;;;15.08;71.77
47556;BME280;33291;46.222;26.460;2023-07-29T00:33:16;96241.97;;;15.02;71.80
47556;BME280;33291;46.222;26.460;2023-07-29T00:35:41;96229.50;;;15.04;71.98
47556;BME280;33291;46.222;26.460;2023-07-29T00:38:07;96234.31;;;14.92;72.42
47556;BME280;33291;46.222;26.460;2023-07-29T00:40:35;96231.78;;;14.75;73.57
47556;BME280;33291;46.222;26.460;2023-07-29T00:43:00;96246.66;;;14.83;73.13
47556;BME280;33291;46.222;26.460;2023-07-29T00:45:27;96243.22;;;14.83;73.31
47556;BME280;33291;46.222;26.460;2023-07-29T00:47:54;96236.81;;;14.85;73.28
47556;BME280;33291;46.222;26.460;2023-07-29T00:50:20;96225.50;;;14.85;73.11
47556;BME280;33291;46.222;26.460;2023-07-29T00:52:45;96231.22;;;14.88;72.97
47556;BME280;33291;46.222;26.460;2023-07-29T00:55:11;96252.66;;;14.92;73.15
47556;BME280;33291;46.222;26.460;2023-07-29T00:57:37;96240.91;;;14.88;73.01
47556;BME280;33291;46.222;26.460;2023-07-29T01:00:03;96240.75;;;14.81;73.64
47556;BME280;33291;46.222;26.460;2023-07-29T01:02:30;96250.28;;;14.82;73.45
47556;BME280;33291;46.222;26.460;2023-07-29T01:04:58;96240.94;;;14.80;73.35
47556;BME280;33291;46.222;26.460;2023-07-29T01:15:51;96231.84;;;14.59;74.58
47556;BME280;33291;46.222;26.460;2023-07-29T01:18:26;96223.97;;;14.59;74.60
47556;BME280;33291;46.222;26.460;2023-07-29T01:20:54;96226.94;;;14.64;74.61
47556;BME280;33291;46.222;26.460;2023-07-29T01:23:24;96207.59;;;14.57;74.83
47556;BME280;33291;46.222;26.460;2023-07-29T01:25:49;96216.44;;;14.56;75.33
47556;BME280;33291;46.222;26.460;2023-07-29T01:28:15;96225.75;;;14.58;74.95
47556;BME280;33291;46.222;26.460;2023-07-29T01:30:43;96209.41;;;14.56;74.87
47556;BME280;33291;46.222;26.460;2023-07-29T01:33:26;96215.81;;;14.62;75.12
47556;BME280;33291;46.222;26.460;2023-07-29T01:36:02;96215.78;;;14.54;75.61
47556;BME280;33291;46.222;26.460;2023-07-29T01:38:29;96213.50;;;14.59;75.36
47556;BME280;33291;46.222;26.460;2023-07-29T01:41:00;96213.81;;;14.64;75.17
47556;BME280;33291;46.222;26.460;2023-07-29T01:43:28;96201.69;;;14.63;75.76
47556;BME280;33291;46.222;26.460;2023-07-29T01:45:54;96188.91;;;14.60;75.68
47556;BME280;33291;46.222;26.460;2023-07-29T01:48:19;96198.75;;;14.58;76.25
47556;BME280;33291;46.222;26.460;2023-07-29T01:50:45;96188.25;;;14.58;75.73
47556;BME280;33291;46.222;26.460;2023-07-29T01:53:10;96174.53;;;14.48;75.91
47556;BME280;33291;46.222;26.460;2023-07-29T01:55:36;96191.88;;;14.65;75.89
47556;BME280;33291;46.222;26.460;2023-07-29T01:58:01;96205.59;;;14.67;75.55
47556;BME280;33291;46.222;26.460;2023-07-29T02:00:27;96204.97;;;14.65;75.86
47556;BME280;33291;46.222;26.460;2023-07-29T02:02:52;96206.06;;;14.71;75.83
47556;BME280;33291;46.222;26.460;2023-07-29T02:05:17;96199.38;;;14.68;76.09
47556;BME280;33291;46.222;26.460;2023-07-29T02:07:43;96209.19;;;14.74;75.95
47556;BME280;33291;46.222;26.460;2023-07-29T02:10:08;96203.59;;;14.78;75.90
47556;BME280;33291;46.222;26.460;2023-07-29T02:12:34;96201.97;;;14.77;76.00
47556;BME280;33291;46.222;26.460;2023-07-29T02:14:59;96217.69;;;14.77;75.96
47556;BME280;33291;46.222;26.460;2023-07-29T02:17:25;96217.06;;;14.74;76.11
47556;BME280;33291;46.222;26.460;2023-07-29T02:19:51;96212.78;;;14.73;76.45
47556;BME280;33291;46.222;26.460;2023-07-29T02:22:17;96208.22;;;14.67;76.04
47556;BME280;33291;46.222;26.460;2023-07-29T02:24:44;96220.69;;;14.65;76.67
47556;BME280;33291;46.222;26.460;2023-07-29T02:27:10;96215.81;;;14.62;76.62
47556;BME280;33291;46.222;26.460;2023-07-29T02:29:35;96221.34;;;14.59;76.86
47556;BME280;33291;46.222;26.460;2023-07-29T02:32:02;96220.88;;;14.64;76.94
47556;BME280;33291;46.222;26.460;2023-07-29T02:34:27;96221.34;;;14.59;77.04
47556;BME280;33291;46.222;26.460;2023-07-29T02:36:53;96233.63;;;14.58;77.34
47556;BME280;33291;46.222;26.460;2023-07-29T02:39:18;96228.22;;;14.60;77.42
47556;BME280;33291;46.222;26.460;2023-07-29T02:41:44;96215.44;;;14.57;77.30
47556;BME280;33291;46.222;26.460;2023-07-29T02:44:09;96219.56;;;14.51;77.92
47556;BME280;33291;46.222;26.460;2023-07-29T02:46:35;96231.22;;;14.49;78.28
47556;BME280;33291;46.222;26.460;2023-07-29T02:49:02;96222.69;;;14.47;78.35
47556;BME280;33291;46.222;26.460;2023-07-29T02:51:28;96225.97;;;14.49;78.14
47556;BME280;33291;46.222;26.460;2023-07-29T02:53:54;96235.13;;;14.53;78.06
47556;BME280;33291;46.222;26.460;2023-07-29T02:56:19;96234.94;;;14.54;77.89
47556;BME280;33291;46.222;26.460;2023-07-29T02:58:44;96236.94;;;14.52;77.89
47556;BME280;33291;46.222;26.460;2023-07-29T03:01:10;96228.25;;;14.52;78.10
47556;BME280;33291;46.222;26.460;2023-07-29T03:03:35;96233.97;;;14.55;77.79
47556;BME280;33291;46.222;26.460;2023-07-29T03:06:06;96234.47;;;14.51;77.92
47556;BME280;33291;46.222;26.460;2023-07-29T03:08:32;96229.75;;;14.46;78.54
47556;BME280;33291;46.222;26.460;2023-07-29T03:10:58;96248.31;;;14.36;80.25
47556;BME280;33291;46.222;26.460;2023-07-29T03:13:24;96234.53;;;14.34;80.19
47556;BME280;33291;46.222;26.460;2023-07-29T03:15:51;96240.44;;;14.36;80.39
47556;BME280;33291;46.222;26.460;2023-07-29T03:18:16;96234.53;;;14.34;79.74
47556;BME280;33291;46.222;26.460;2023-07-29T03:20:42;96230.59;;;14.38;79.87
47556;BME280;33291;46.222;26.460;2023-07-29T03:23:07;96237.81;;;14.36;80.05
47556;BME280;33291;46.222;26.460;2023-07-29T03:25:33;96234.19;;;14.37;79.92
47556;BME280;33291;46.222;26.460;2023-07-29T03:27:58;96236.31;;;14.42;79.61
47556;BME280;33291;46.222;26.460;2023-07-29T03:30:24;96225.72;;;14.27;81.54
47556;BME280;33291;46.222;26.460;2023-07-29T03:32:50;96233.91;;;14.32;80.96
47556;BME280;33291;46.222;26.460;2023-07-29T03:35:16;96246.66;;;14.35;81.29
47556;BME280;33291;46.222;26.460;2023-07-29T03:37:42;96235.19;;;14.36;80.78
47556;BME280;33291;46.222;26.460;2023-07-29T03:40:08;96244.34;;;14.40;80.86
47556;BME280;33291;46.222;26.460;2023-07-29T03:42:35;96243.66;;;14.47;80.35
47556;BME280;33291;46.222;26.460;2023-07-29T03:45:01;96250.53;;;14.48;80.31
47556;BME280;33291;46.222;26.460;2023-07-29T03:47:26;96247.75;;;14.49;79.90
47556;BME280;33291;46.222;26.460;2023-07-29T03:49:52;96243.66;;;14.47;79.70
47556;BME280;33291;46.222;26.460;2023-07-29T03:52:18;96252.47;;;14.54;79.71
47556;BME280;33291;46.222;26.460;2023-07-29T03:54:43;96258.06;;;14.59;79.99
47556;BME280;33291;46.222;26.460;2023-07-29T03:57:09;96258.84;;;14.60;80.31
47556;BME280;33291;46.222;26.460;2023-07-29T03:59:34;96253.63;;;14.60;80.37
47556;BME280;33291;46.222;26.460;2023-07-29T04:02:00;96242.03;;;14.46;81.19
47556;BME280;33291;46.222;26.460;2023-07-29T04:04:25;96254.13;;;14.55;81.60
47556;BME280;33291;46.222;26.460;2023-07-29T04:06:51;96252.31;;;14.55;81.35
47556;BME280;33291;46.222;26.460;2023-07-29T04:09:17;96255.44;;;14.59;81.28
47556;BME280;33291;46.222;26.460;2023-07-29T04:11:42;96262.66;;;14.65;80.93
47556;BME280;33291;46.222;26.460;2023-07-29T04:14:08;96249.53;;;14.65;80.86
47556;BME280;33291;46.222;26.460;2023-07-29T04:16:33;96255.25;;;14.69;80.77
47556;BME280;33291;46.222;26.460;2023-07-29T04:18:58;96238.06;;;14.58;81.16
47556;BME280;33291;46.222;26.460;2023-07-29T04:21:24;96261.63;;;14.74;81.06
47556;BME280;33291;46.222;26.460;2023-07-29T04:23:49;96275.81;;;14.80;81.23
47556;BME280;33291;46.222;26.460;2023-07-29T04:26:15;96269.59;;;14.81;81.33
47556;BME280;33291;46.222;26.460;2023-07-29T04:28:40;96282.38;;;14.84;81.56
47556;BME280;33291;46.222;26.460;2023-07-29T04:31:06;96273.38;;;14.79;81.83
47556;BME280;33291;46.222;26.460;2023-07-29T04:33:31;96283.19;;;14.85;81.72
47556;BME280;33291;46.222;26.460;2023-07-29T04:35:57;96268.81;;;14.81;82.06
47556;BME280;33291;46.222;26.460;2023-07-29T04:38:32;96273.88;;;14.82;82.01
47556;BME280;33291;46.222;26.460;2023-07-29T04:40:58;96280.38;;;14.86;82.05
47556;BME280;33291;46.222;26.460;2023-07-29T04:43:28;96274.84;;;14.81;82.32
47556;BME280;33291;46.222;26.460;2023-07-29T04:45:54;96277.94;;;14.85;82.36
47556;BME280;33291;46.222;26.460;2023-07-29T04:48:20;96285.63;;;14.86;82.48
47556;BME280;33291;46.222;26.460;2023-07-29T04:50:45;96280.25;;;14.88;82.63
47556;BME280;33291;46.222;26.460;2023-07-29T04:53:11;96282.88;;;14.88;83.10
47556;BME280;33291;46.222;26.460;2023-07-29T04:55:36;96273.03;;;14.82;83.08
47556;BME280;33291;46.222;26.460;2023-07-29T04:58:01;96285.97;;;14.91;83.30
47556;BME280;33291;46.222;26.460;2023-07-29T05:00:27;96283.81;;;14.95;83.36
47556;BME280;33291;46.222;26.460;2023-07-29T05:02:52;96295.59;;;14.99;83.54
47556;BME280;33291;46.222;26.460;2023-07-29T05:05:18;96292.44;;;15.04;83.54
47556;BME280;33291;46.222;26.460;2023-07-29T05:07:43;96297.00;;;15.10;83.54
47556;BME280;33291;46.222;26.460;2023-07-29T05:10:09;96293.06;;;15.14;84.67
47556;BME280;33291;46.222;26.460;2023-07-29T05:12:34;96270.94;;;15.08;84.22
47556;BME280;33291;46.222;26.460;2023-07-29T05:15:00;96293.19;;;15.21;84.98
47556;BME280;33291;46.222;26.460;2023-07-29T05:17:25;96293.53;;;15.18;85.47
47556;BME280;33291;46.222;26.460;2023-07-29T05:19:51;96283.69;;;15.20;85.94
47556;BME280;33291;46.222;26.460;2023-07-29T05:22:16;96293.16;;;15.29;85.41
47556;BME280;33291;46.222;26.460;2023-07-29T05:24:41;96300.78;;;15.39;84.33
47556;BME280;33291;46.222;26.460;2023-07-29T05:27:07;96296.94;;;15.50;83.52
47556;BME280;33291;46.222;26.460;2023-07-29T05:29:33;96292.28;;;15.60;82.69
47556;BME280;33291;46.222;26.460;2023-07-29T05:31:59;96285.34;;;15.67;82.57
47556;BME280;33291;46.222;26.460;2023-07-29T05:34:24;96301.81;;;15.76;81.95
47556;BME280;33291;46.222;26.460;2023-07-29T05:36:50;96305.91;;;15.87;81.07
47556;BME280;33291;46.222;26.460;2023-07-29T05:39:15;96307.81;;;15.93;80.53
47556;BME280;33291;46.222;26.460;2023-07-29T05:41:41;96301.84;;;15.99;79.78
47556;BME280;33291;46.222;26.460;2023-07-29T05:44:06;96305.75;;;16.03;80.04
47556;BME280;33291;46.222;26.460;2023-07-29T05:46:32;96310.75;;;16.13;81.53
47556;BME280;33291;46.222;26.460;2023-07-29T05:48:57;96313.66;;;16.18;80.77
47556;BME280;33291;46.222;26.460;2023-07-29T05:51:22;96308.69;;;16.23;81.03
47556;BME280;33291;46.222;26.460;2023-07-29T05:53:48;96309.78;;;16.29;80.98
47556;BME280;33291;46.222;26.460;2023-07-29T05:56:13;96308.44;;;16.33;80.84
47556;BME280;33291;46.222;26.460;2023-07-29T05:58:39;96311.31;;;16.38;80.84
47556;BME280;33291;46.222;26.460;2023-07-29T06:01:04;96316.50;;;16.46;80.78
47556;BME280;33291;46.222;26.460;2023-07-29T06:03:30;96311.88;;;16.48;80.90
47556;BME280;33291;46.222;26.460;2023-07-29T06:05:55;96317.25;;;16.55;80.62
47556;BME280;33291;46.222;26.460;2023-07-29T06:08:21;96324.84;;;16.65;81.00
47556;BME280;33291;46.222;26.460;2023-07-29T06:10:46;96318.59;;;16.66;81.17
47556;BME280;33291;46.222;26.460;2023-07-29T06:13:12;96294.28;;;16.64;82.10
47556;BME280;33291;46.222;26.460;2023-07-29T06:15:37;96304.63;;;16.80;81.29
47556;BME280;33291;46.222;26.460;2023-07-29T06:18:03;96308.00;;;16.89;80.75
47556;BME280;33291;46.222;26.460;2023-07-29T06:20:29;96315.25;;;17.02;80.69
47556;BME280;33291;46.222;26.460;2023-07-29T06:22:54;96319.78;;;17.08;81.09
47556;BME280;33291;46.222;26.460;2023-07-29T06:25:19;96318.03;;;17.15;79.02
47556;BME280;33291;46.222;26.460;2023-07-29T06:27:45;96312.41;;;17.18;77.26
47556;BME280;33291;46.222;26.460;2023-07-29T06:30:10;96321.63;;;17.29;77.42
47556;BME280;33291;46.222;26.460;2023-07-29T06:32:36;96317.44;;;17.35;77.94
47556;BME280;33291;46.222;26.460;2023-07-29T06:35:01;96317.16;;;17.45;77.71
47556;BME280;33291;46.222;26.460;2023-07-29T06:37:27;96328.19;;;17.55;78.26
47556;BME280;33291;46.222;26.460;2023-07-29T06:39:53;96327.63;;;17.59;78.65
47556;BME280;33291;46.222;26.460;2023-07-29T06:42:18;96321.78;;;17.64;79.06
47556;BME280;33291;46.222;26.460;2023-07-29T06:44:43;96325.50;;;17.70;78.74
47556;BME280;33291;46.222;26.460;2023-07-29T06:47:11;96326.78;;;17.74;79.37
47556;BME280;33291;46.222;26.460;2023-07-29T06:49:36;96325.59;;;17.76;78.94
47556;BME280;33291;46.222;26.460;2023-07-29T06:52:02;96321.38;;;17.82;79.12
47556;BME280;33291;46.222;26.460;2023-07-29T06:54:28;96313.06;;;17.85;79.32
47556;BME280;33291;46.222;26.460;2023-07-29T06:56:53;96309.44;;;17.86;79.53
47556;BME280;33291;46.222;26.460;2023-07-29T06:59:19;96304.19;;;17.86;79.38
47556;BME280;33291;46.222;26.460;2023-07-29T07:01:44;96318.88;;;17.96;79.45
47556;BME280;33291;46.222;26.460;2023-07-29T07:04:10;96306.34;;;17.98;80.32
47556;BME280;33291;46.222;26.460;2023-07-29T07:06:35;96308.84;;;18.06;80.32
47556;BME280;33291;46.222;26.460;2023-07-29T07:09:01;96310.94;;;18.17;80.00
47556;BME280;33291;46.222;26.460;2023-07-29T07:11:26;96304.78;;;18.32;79.31
47556;BME280;33291;46.222;26.460;2023-07-29T07:13:52;96305.94;;;18.57;78.60
47556;BME280;33291;46.222;26.460;2023-07-29T07:16:17;96296.69;;;18.75;77.61
47556;BME280;33291;46.222;26.460;2023-07-29T07:18:43;96295.63;;;18.97;74.38
47556;BME280;33291;46.222;26.460;2023-07-29T07:21:08;96291.25;;;19.18;70.84
47556;BME280;33291;46.222;26.460;2023-07-29T07:23:34;96277.06;;;19.32;68.17
47556;BME280;33291;46.222;26.460;2023-07-29T07:25:59;96283.22;;;19.53;67.00
47556;BME280;33291;46.222;26.460;2023-07-29T07:28:25;96267.78;;;19.63;67.05
47556;BME280;33291;46.222;26.460;2023-07-29T07:30:51;96287.53;;;20.01;65.76
47556;BME280;33291;46.222;26.460;2023-07-29T07:33:17;96281.66;;;20.12;64.67
47556;BME280;33291;46.222;26.460;2023-07-29T07:35:42;96267.16;;;20.28;63.90
47556;BME280;33291;46.222;26.460;2023-07-29T07:38:08;96267.94;;;20.55;62.76
47556;BME280;33291;46.222;26.460;2023-07-29T07:40:35;96272.97;;;20.84;61.57
47556;BME280;33291;46.222;26.460;2023-07-29T07:43:01;96261.72;;;21.02;60.06
47556;BME280;33291;46.222;26.460;2023-07-29T07:45:27;96246.63;;;21.09;58.39
47556;BME280;33291;46.222;26.460;2023-07-29T07:47:53;96259.28;;;21.39;57.62
47556;BME280;33291;46.222;26.460;2023-07-29T07:50:21;96255.78;;;21.52;56.79
47556;BME280;33291;46.222;26.460;2023-07-29T07:52:47;96253.00;;;21.65;56.13
47556;BME280;33291;46.222;26.460;2023-07-29T07:55:12;96236.44;;;21.76;55.89
47556;BME280;33291;46.222;26.460;2023-07-29T07:57:38;96238.09;;;21.96;55.12
47556;BME280;33291;46.222;26.460;2023-07-29T08:00:04;96242.22;;;22.17;54.41
47556;BME280;33291;46.222;26.460;2023-07-29T08:02:30;96234.97;;;22.31;53.52
47556;BME280;33291;46.222;26.460;2023-07-29T08:04:55;96235.53;;;22.51;51.44
47556;BME280;33291;46.222;26.460;2023-07-29T08:07:21;96229.28;;;22.64;51.23
47556;BME280;33291;46.222;26.460;2023-07-29T08:09:47;96210.34;;;22.79;50.98
47556;BME280;33291;46.222;26.460;2023-07-29T08:12:12;96215.16;;;23.01;51.12
47556;BME280;33291;46.222;26.460;2023-07-29T08:14:38;96209.25;;;23.17;50.33
47556;BME280;33291;46.222;26.460;2023-07-29T08:17:03;96187.84;;;23.12;50.57
47556;BME280;33291;46.222;26.460;2023-07-29T08:19:29;96203.41;;;23.39;50.23
47556;BME280;33291;46.222;26.460;2023-07-29T08:21:54;96206.44;;;23.54;49.23
47556;BME280;33291;46.222;26.460;2023-07-29T08:24:20;96198.63;;;23.59;49.22
47556;BME280;33291;46.222;26.460;2023-07-29T08:26:45;96203.34;;;23.69;48.16
47556;BME280;33291;46.222;26.460;2023-07-29T08:29:11;96174.81;;;23.65;48.46
47556;BME280;33291;46.222;26.460;2023-07-29T08:31:37;96195.69;;;23.91;48.57
47556;BME280;33291;46.222;26.460;2023-07-29T08:34:02;96182.13;;;24.05;48.71
47556;BME280;33291;46.222;26.460;2023-07-29T08:36:28;96180.28;;;24.05;48.12
47556;BME280;33291;46.222;26.460;2023-07-29T08:38:53;96191.25;;;24.09;48.22
47556;BME280;33291;46.222;26.460;2023-07-29T08:44:23;96178.44;;;24.06;48.16
47556;BME280;33291;46.222;26.460;2023-07-29T08:46:49;96180.28;;;24.05;48.02
47556;BME280;33291;46.222;26.460;2023-07-29T08:49:16;96181.88;;;24.06;48.63
47556;BME280;33291;46.222;26.460;2023-07-29T08:51:48;96183.03;;;24.10;50.45
47556;BME280;33291;46.222;26.460;2023-07-29T08:54:14;96188.94;;;24.24;50.16
47556;BME280;33291;46.222;26.460;2023-07-29T08:56:41;96186.72;;;24.33;47.91
47556;BME280;33291;46.222;26.460;2023-07-29T08:59:08;96190.66;;;24.42;46.55
47556;BME280;33291;46.222;26.460;2023-07-29T09:01:33;96177.88;;;24.56;45.76
47556;BME280;33291;46.222;26.460;2023-07-29T09:03:59;96178.84;;;24.62;45.97
47556;BME280;33291;46.222;26.460;2023-07-29T09:06:25;96172.47;;;24.63;46.62
47556;BME280;33291;46.222;26.460;2023-07-29T09:08:54;96167.94;;;24.63;46.51
47556;BME280;33291;46.222;26.460;2023-07-29T09:11:21;96180.09;;;24.59;46.27
47556;BME280;33291;46.222;26.460;2023-07-29T09:13:47;96177.22;;;24.49;46.90
47556;BME280;33291;46.222;26.460;2023-07-29T09:16:13;96183.47;;;24.43;47.54
47556;BME280;33291;46.222;26.460;2023-07-29T09:18:39;96192.06;;;24.33;48.41
47556;BME280;33291;46.222;26.460;2023-07-29T09:21:04;96191.59;;;24.24;48.44
47556;BME280;33291;46.222;26.460;2023-07-29T09:23:43;96189.88;;;24.18;48.21
47556;BME280;33291;46.222;26.460;2023-07-29T09:26:10;96184.06;;;24.21;47.91
47556;BME280;33291;46.222;26.460;2023-07-29T09:28:37;96185.00;;;24.39;47.87
47556;BME280;33291;46.222;26.460;2023-07-29T09:31:03;96177.88;;;24.56;47.90
47556;BME280;33291;46.222;26.460;2023-07-29T09:33:32;96178.88;;;24.79;47.53
47556;BME280;33291;46.222;26.460;2023-07-29T09:36:00;96181.50;;;24.91;46.81
47556;BME280;33291;46.222;26.460;2023-07-29T09:38:29;96170.34;;;25.06;45.91
47556;BME280;33291;46.222;26.460;2023-07-29T09:40:56;96184.47;;;25.06;46.17
47556;BME280;33291;46.222;26.460;2023-07-29T09:43:29;96174.28;;;25.03;45.89
47556;BME280;33291;46.222;26.460;2023-07-29T09:45:54;96181.56;;;25.08;45.77
47556;BME280;33291;46.222;26.460;2023-07-29T09:48:23;96176.91;;;25.15;46.21
47556;BME280;33291;46.222;26.460;2023-07-29T09:50:48;96185.78;;;25.21;46.09
47556;BME280;33291;46.222;26.460;2023-07-29T09:53:14;96180.31;;;25.27;45.80
47556;BME280;33291;46.222;26.460;2023-07-29T09:55:46;96169.56;;;25.22;45.81
47556;BME280;33291;46.222;26.460;2023-07-29T09:58:12;96178.03;;;25.19;46.05
47556;BME280;33291;46.222;26.460;2023-07-29T10:00:37;96171.56;;;25.15;46.30
47556;BME280;33291;46.222;26.460;2023-07-29T10:03:04;96173.66;;;25.13;46.27
47556;BME280;33291;46.222;26.460;2023-07-29T10:05:30;96181.47;;;25.03;46.21
47556;BME280;33291;46.222;26.460;2023-07-29T10:07:56;96183.94;;;24.92;46.50
47556;BME280;33291;46.222;26.460;2023-07-29T10:10:22;96193.91;;;24.85;46.74
47556;BME280;33291;46.222;26.460;2023-07-29T10:12:48;96193.03;;;24.79;47.33
47556;BME280;33291;46.222;26.460;2023-07-29T10:15:14;96186.78;;;24.74;47.87
47556;BME280;33291;46.222;26.460;2023-07-29T10:17:40;96183.88;;;24.75;46.66
47556;BME280;33291;46.222;26.460;2023-07-29T10:20:08;96182.81;;;24.76;47.05
47556;BME280;33291;46.222;26.460;2023-07-29T10:22:41;96175.50;;;24.83;47.34
47556;BME280;33291;46.222;26.460;2023-07-29T10:25:10;96163.66;;;24.91;47.53
47556;BME280;33291;46.222;26.460;2023-07-29T10:30:13;96177.81;;;24.92;46.09
47556;BME280;33291;46.222;26.460;2023-07-29T10:32:42;96184.91;;;24.86;46.64
47556;BME280;33291;46.222;26.460;2023-07-29T10:35:08;96173.28;;;24.92;46.73
47556;BME280;33291;46.222;26.460;2023-07-29T10:37:34;96176.97;;;24.91;46.99
47556;BME280;33291;46.222;26.460;2023-07-29T10:40:00;96167.47;;;24.95;46.85
47556;BME280;33291;46.222;26.460;2023-07-29T10:42:30;96171.84;;;25.01;46.77
47556;BME280;33291;46.222;26.460;2023-07-29T10:44:56;96170.41;;;25.11;47.37
47556;BME280;33291;46.222;26.460;2023-07-29T10:47:26;96156.53;;;25.09;47.55
47556;BME280;33291;46.222;26.460;2023-07-29T10:49:57;96157.09;;;25.11;48.06
47556;BME280;33291;46.222;26.460;2023-07-29T10:55:01;96154.78;;;25.14;47.96
47556;BME280;33291;46.222;26.460;2023-07-29T10:57:32;96150.25;;;25.15;49.01
47556;BME280;33291;46.222;26.460;2023-07-29T10:59:58;96153.81;;;25.21;47.85
47556;BME280;33291;46.222;26.460;2023-07-29T11:02:31;96152.50;;;25.23;47.09
47556;BME280;33291;46.222;26.460;2023-07-29T11:04:58;96145.56;;;25.22;46.46
47556;BME280;33291;46.222;26.460;2023-07-29T11:07:27;96143.47;;;25.24;46.26
47556;BME280;33291;46.222;26.460;2023-07-29T11:09:55;96148.00;;;25.24;46.54
47556;BME280;33291;46.222;26.460;2023-07-29T11:12:43;96150.91;;;25.22;47.09
47556;BME280;33291;46.222;26.460;2023-07-29T11:17:46;96151.13;;;25.49;47.15
47556;BME280;33291;46.222;26.460;2023-07-29T11:20:13;96134.28;;;25.66;46.21
47556;BME280;33291;46.222;26.460;2023-07-29T11:22:39;96137.81;;;25.88;45.15
47556;BME280;33291;46.222;26.460;2023-07-29T11:25:08;96145.66;;;25.95;42.65
47556;BME280;33291;46.222;26.460;2023-07-29T11:27:34;96131.19;;;25.91;42.13
47556;BME280;33291;46.222;26.460;2023-07-29T11:30:01;96130.16;;;25.92;42.09
47556;BME280;33291;46.222;26.460;2023-07-29T11:32:27;96122.53;;;25.84;41.75
47556;BME280;33291;46.222;26.460;2023-07-29T11:34:52;96119.28;;;25.77;41.81
47556;BME280;33291;46.222;26.460;2023-07-29T11:37:18;96117.66;;;25.76;41.69
47556;BME280;33291;46.222;26.460;2023-07-29T11:39:45;96122.44;;;25.74;41.59
47556;BME280;33291;46.222;26.460;2023-07-29T11:42:11;96120.22;;;25.70;42.57
47556;BME280;33291;46.222;26.460;2023-07-29T11:44:37;96131.97;;;25.69;42.44
47556;BME280;33291;46.222;26.460;2023-07-29T11:47:10;96098.91;;;25.53;42.96
47556;BME280;33291;46.222;26.460;2023-07-29T11:49:37;96122.34;;;25.68;42.84
47556;BME280;33291;46.222;26.460;2023-07-29T11:52:03;96125.00;;;25.68;43.16
47556;BME280;33291;46.222;26.460;2023-07-29T11:54:29;96117.00;;;25.68;44.16
47556;BME280;33291;46.222;26.460;2023-07-29T11:56:55;96113.44;;;25.63;44.47
47556;BME280;33291;46.222;26.460;2023-07-29T11:59:21;96121.78;;;25.66;44.73
47556;BME280;33291;46.222;26.460;2023-07-29T12:01:47;96119.09;;;25.66;45.13
47556;BME280;33291;46.222;26.460;2023-07-29T12:04:13;96120.72;;;25.67;43.71
47556;BME280;33291;46.222;26.460;2023-07-29T12:06:39;96123.84;;;25.64;43.81
47556;BME280;33291;46.222;26.460;2023-07-29T12:09:05;96115.56;;;25.61;44.20
47556;BME280;33291;46.222;26.460;2023-07-29T12:11:31;96122.25;;;25.63;44.75
47556;BME280;33291;46.222;26.460;2023-07-29T12:13:57;96124.94;;;25.63;45.02
47556;BME280;33291;46.222;26.460;2023-07-29T12:16:24;96114.75;;;25.60;45.42
47556;BME280;33291;46.222;26.460;2023-07-29T12:18:50;96128.56;;;25.57;45.54
47556;BME280;33291;46.222;26.460;2023-07-29T12:21:16;96130.66;;;25.55;46.23
47556;BME280;33291;46.222;26.460;2023-07-29T12:23:42;96112.72;;;25.33;46.90
47556;BME280;33291;46.222;26.460;2023-07-29T12:26:08;96136.91;;;25.44;47.29
47556;BME280;33291;46.222;26.460;2023-07-29T12:28:33;96134.94;;;25.39;47.51
47556;BME280;33291;46.222;26.460;2023-07-29T12:30:59;96132.03;;;25.41;47.95
47556;BME280;33291;46.222;26.460;2023-07-29T12:35:56;96140.09;;;25.63;47.36
47556;BME280;33291;46.222;26.460;2023-07-29T12:38:22;96128.31;;;25.76;46.13
47556;BME280;33291;46.222;26.460;2023-07-29T12:40:47;96118.03;;;25.84;45.08
47556;BME280;33291;46.222;26.460;2023-07-29T12:43:13;96126.03;;;26.01;44.65
47556;BME280;33291;46.222;26.460;2023-07-29T12:45:38;96118.09;;;26.06;44.34
47556;BME280;33291;46.222;26.460;2023-07-29T12:48:08;96115.66;;;26.05;44.40
47556;BME280;33291;46.222;26.460;2023-07-29T12:50:33;96111.41;;;26.04;44.35
47556;BME280;33291;46.222;26.460;2023-07-29T12:52:59;96116.59;;;26.16;44.29
47556;BME280;33291;46.222;26.460;2023-07-29T12:55:24;96119.34;;;26.21;44.51
47556;BME280;33291;46.222;26.460;2023-07-29T12:57:50;96118.53;;;26.20;43.85
47556;BME280;33291;46.222;26.460;2023-07-29T13:00:16;96118.28;;;26.22;43.55
47556;BME280;33291;46.222;26.460;2023-07-29T13:02:42;96107.97;;;26.31;43.30
47556;BME280;33291;46.222;26.460;2023-07-29T13:05:10;96112.66;;;26.40;43.35
47556;BME280;33291;46.222;26.460;2023-07-29T13:07:39;96115.91;;;26.48;42.43